Main page
METAR-TAF:

METAR-TAF

Airports :

Diori Hamani International Airport

Niamey, Niger

latitude: 13-29N, longitude: 002-10E, elevation: 223 m

Current weather observation

The report was made 21 minutes ago, at 04:00 UTC
Wind 3 kt from variable directions
Temperature 29°C
Humidity 62%
Pressure 1011 hPa
Visibility 10 km or more
no clouds below 1500 m and no cumulonimbus

METAR: DRRN 170400Z VRB03KT CAVOK 29/21 Q1011 NOSIG

Time: 05:21 (04:21 UTC)

Forecast

The report was made 5 hours and 21 minutes ago, at 23:00 UTC
Forecast valid from 17 at 00 UTC to 18 at 06 UTC
Wind 6 kt from the Southwest
Visibility 10 km or more
no clouds below 1500 m and no cumulonimbus
Probability 40% :
Temporary
from 17 at 03 UTC to 17 at 19 UTC
Wind 30 kt from the Southeast
Visibility: 1200 m
Scattered clouds at a height of 3000 ft
Few clouds at a height of 4000 ft, Cumulonimbus.
Blowing dust, thunderstorm, light rain

TAF: DRRN 162300Z 1700/1806 220006KT CAVOK PROB40 TEMPO 1703/1719 14030KT 1200 BLDU -TSRA SCT030 FEW040CB

Weather observations and forecasts of more than 4000 airports (METAR and TAF reports).

The available stations are represented by yellow and red dots on the map.

Hover mouse over dot to see the name of the station.

Then click to see weather observations and forecasts.

To change the map : click on the green buttons with a black cross to zoom in, on the green button with a dash to zoom out, or on the green arrows for adjacent maps.


METAR-TAF: